Terminal Aerodrome Forecast
Issued by NWS

Home | Current Version | Previous Version | Text Only | Print | Product List | Glossary On
Versions: 1 2 3 4 5 6 7 8 9 10 11 12 13 14 15 16
000
FTUS41 KPBZ 301026 AAA
TAFLBE
TAF AMD
KLBE 301026Z 3010/3106 00000KT P6SM VCSH FEW045 SCT060
      TEMPO 3010/3012 3SM -SHRA BR BKN040
     FM301900 25008KT P6SM VCSH BKN050
     FM310300 VRB03KT P6SM BKN050
      AMD NOT SKED TIL 301100=

USA.gov is the U.S. government's official web portal to all federal, state and local government web resources and services.